sensor_id;sensor_type;location;lat;lon;timestamp;P1;durP1;ratioP1;P2;durP2;ratioP2
58784;SDS011;44557;51.862;19.378;2023-04-25T00:01:40;7.70;;;4.40;;
58784;SDS011;44557;51.862;19.378;2023-04-25T00:03:41;8.00;;;4.50;;
58784;SDS011;44557;51.862;19.378;2023-04-25T00:05:43;7.00;;;4.60;;
58784;SDS011;44557;51.862;19.378;2023-04-25T00:07:46;7.70;;;4.10;;
58784;SDS011;44557;51.862;19.378;2023-04-25T00:09:47;6.90;;;4.00;;
58784;SDS011;44557;51.862;19.378;2023-04-25T00:11:49;6.10;;;4.00;;
58784;SDS011;44557;51.862;19.378;2023-04-25T00:13:51;6.50;;;4.20;;
58784;SDS011;44557;51.862;19.378;2023-04-25T00:15:52;6.90;;;4.30;;
58784;SDS011;44557;51.862;19.378;2023-04-25T00:17:54;5.70;;;3.60;;
58784;SDS011;44557;51.862;19.378;2023-04-25T00:19:56;7.30;;;4.20;;
58784;SDS011;44557;51.862;19.378;2023-04-25T00:21:59;7.30;;;4.10;;
58784;SDS011;44557;51.862;19.378;2023-04-25T00:24:01;7.00;;;4.10;;
58784;SDS011;44557;51.862;19.378;2023-04-25T00:26:02;5.70;;;3.80;;
58784;SDS011;44557;51.862;19.378;2023-04-25T00:28:04;5.90;;;3.80;;
58784;SDS011;44557;51.862;19.378;2023-04-25T00:30:06;6.20;;;4.00;;
58784;SDS011;44557;51.862;19.378;2023-04-25T00:32:08;7.20;;;3.80;;
58784;SDS011;44557;51.862;19.378;2023-04-25T00:34:10;6.60;;;3.60;;
58784;SDS011;44557;51.862;19.378;2023-04-25T00:36:13;5.90;;;3.70;;
58784;SDS011;44557;51.862;19.378;2023-04-25T00:38:15;6.10;;;4.10;;
58784;SDS011;44557;51.862;19.378;2023-04-25T00:40:17;7.20;;;4.00;;
58784;SDS011;44557;51.862;19.378;2023-04-25T00:42:18;8.60;;;4.00;;
58784;SDS011;44557;51.862;19.378;2023-04-25T00:44:20;6.10;;;3.60;;
58784;SDS011;44557;51.862;19.378;2023-04-25T00:46:22;8.90;;;4.20;;
58784;SDS011;44557;51.862;19.378;2023-04-25T00:48:24;6.70;;;4.00;;
58784;SDS011;44557;51.862;19.378;2023-04-25T00:50:26;6.10;;;4.00;;
58784;SDS011;44557;51.862;19.378;2023-04-25T00:52:27;7.80;;;4.20;;
58784;SDS011;44557;51.862;19.378;2023-04-25T00:54:29;7.00;;;4.20;;
58784;SDS011;44557;51.862;19.378;2023-04-25T00:56:31;6.20;;;4.10;;
58784;SDS011;44557;51.862;19.378;2023-04-25T00:58:33;7.20;;;4.60;;
58784;SDS011;44557;51.862;19.378;2023-04-25T01:00:35;8.00;;;4.40;;
58784;SDS011;44557;51.862;19.378;2023-04-25T01:02:37;8.20;;;4.60;;
58784;SDS011;44557;51.862;19.378;2023-04-25T01:04:39;6.40;;;4.20;;
58784;SDS011;44557;51.862;19.378;2023-04-25T01:06:41;6.60;;;4.00;;
58784;SDS011;44557;51.862;19.378;2023-04-25T01:08:43;7.00;;;4.30;;
58784;SDS011;44557;51.862;19.378;2023-04-25T01:10:44;6.70;;;4.20;;
58784;SDS011;44557;51.862;19.378;2023-04-25T01:12:46;7.70;;;4.90;;
58784;SDS011;44557;51.862;19.378;2023-04-25T01:14:48;5.90;;;4.30;;
58784;SDS011;44557;51.862;19.378;2023-04-25T01:16:50;7.60;;;4.80;;
58784;SDS011;44557;51.862;19.378;2023-04-25T01:18:51;8.00;;;5.30;;
58784;SDS011;44557;51.862;19.378;2023-04-25T01:20:53;8.10;;;4.90;;
58784;SDS011;44557;51.862;19.378;2023-04-25T01:22:55;7.60;;;5.20;;
58784;SDS011;44557;51.862;19.378;2023-04-25T01:24:57;8.30;;;4.80;;
58784;SDS011;44557;51.862;19.378;2023-04-25T01:27:00;7.30;;;5.00;;
58784;SDS011;44557;51.862;19.378;2023-04-25T01:29:05;7.00;;;4.90;;
58784;SDS011;44557;51.862;19.378;2023-04-25T01:31:08;7.10;;;4.80;;
58784;SDS011;44557;51.862;19.378;2023-04-25T01:33:10;6.60;;;5.00;;
58784;SDS011;44557;51.862;19.378;2023-04-25T01:35:15;7.60;;;5.00;;
58784;SDS011;44557;51.862;19.378;2023-04-25T01:37:16;8.00;;;5.30;;
58784;SDS011;44557;51.862;19.378;2023-04-25T01:39:19;7.60;;;5.00;;
58784;SDS011;44557;51.862;19.378;2023-04-25T01:41:21;8.20;;;6.00;;
58784;SDS011;44557;51.862;19.378;2023-04-25T01:43:24;7.50;;;5.50;;
58784;SDS011;44557;51.862;19.378;2023-04-25T01:45:27;7.30;;;5.20;;
58784;SDS011;44557;51.862;19.378;2023-04-25T01:47:29;8.20;;;5.40;;
58784;SDS011;44557;51.862;19.378;2023-04-25T01:49:31;8.10;;;5.30;;
58784;SDS011;44557;51.862;19.378;2023-04-25T01:51:33;8.40;;;5.10;;
58784;SDS011;44557;51.862;19.378;2023-04-25T01:53:34;7.90;;;5.60;;
58784;SDS011;44557;51.862;19.378;2023-04-25T01:55:36;9.90;;;5.40;;
58784;SDS011;44557;51.862;19.378;2023-04-25T01:57:38;8.70;;;5.60;;
58784;SDS011;44557;51.862;19.378;2023-04-25T01:59:39;6.80;;;5.40;;
58784;SDS011;44557;51.862;19.378;2023-04-25T02:01:41;8.00;;;5.30;;
58784;SDS011;44557;51.862;19.378;2023-04-25T02:03:44;7.70;;;5.60;;
58784;SDS011;44557;51.862;19.378;2023-04-25T02:05:46;8.20;;;5.30;;
58784;SDS011;44557;51.862;19.378;2023-04-25T02:07:47;9.80;;;6.00;;
58784;SDS011;44557;51.862;19.378;2023-04-25T02:09:49;9.00;;;5.70;;
58784;SDS011;44557;51.862;19.378;2023-04-25T02:11:52;9.70;;;6.50;;
58784;SDS011;44557;51.862;19.378;2023-04-25T02:13:54;9.10;;;5.70;;
58784;SDS011;44557;51.862;19.378;2023-04-25T02:15:55;8.20;;;6.10;;
58784;SDS011;44557;51.862;19.378;2023-04-25T02:17:57;9.20;;;5.90;;
58784;SDS011;44557;51.862;19.378;2023-04-25T02:19:59;8.10;;;6.20;;
58784;SDS011;44557;51.862;19.378;2023-04-25T02:22:00;8.90;;;5.70;;
58784;SDS011;44557;51.862;19.378;2023-04-25T02:24:02;8.70;;;5.90;;
58784;SDS011;44557;51.862;19.378;2023-04-25T02:26:05;9.20;;;5.50;;
58784;SDS011;44557;51.862;19.378;2023-04-25T02:28:06;9.10;;;6.20;;
58784;SDS011;44557;51.862;19.378;2023-04-25T02:30:08;8.50;;;5.80;;
58784;SDS011;44557;51.862;19.378;2023-04-25T02:32:11;8.70;;;5.90;;
58784;SDS011;44557;51.862;19.378;2023-04-25T02:34:12;7.80;;;5.40;;
58784;SDS011;44557;51.862;19.378;2023-04-25T02:36:14;8.40;;;5.30;;
58784;SDS011;44557;51.862;19.378;2023-04-25T02:38:16;7.20;;;5.20;;
58784;SDS011;44557;51.862;19.378;2023-04-25T02:40:17;8.90;;;5.80;;
58784;SDS011;44557;51.862;19.378;2023-04-25T02:42:19;7.00;;;4.50;;
58784;SDS011;44557;51.862;19.378;2023-04-25T02:44:21;6.50;;;4.70;;
58784;SDS011;44557;51.862;19.378;2023-04-25T02:46:22;7.20;;;4.60;;
58784;SDS011;44557;51.862;19.378;2023-04-25T02:48:24;7.80;;;4.40;;
58784;SDS011;44557;51.862;19.378;2023-04-25T02:50:26;6.60;;;4.00;;
58784;SDS011;44557;51.862;19.378;2023-04-25T02:52:27;6.50;;;4.00;;
58784;SDS011;44557;51.862;19.378;2023-04-25T02:54:29;6.20;;;4.20;;
58784;SDS011;44557;51.862;19.378;2023-04-25T02:56:31;6.90;;;3.80;;
58784;SDS011;44557;51.862;19.378;2023-04-25T02:58:33;6.80;;;3.60;;
58784;SDS011;44557;51.862;19.378;2023-04-25T03:00:34;7.00;;;4.00;;
58784;SDS011;44557;51.862;19.378;2023-04-25T03:02:36;5.50;;;3.50;;
58784;SDS011;44557;51.862;19.378;2023-04-25T03:04:38;5.50;;;3.40;;
58784;SDS011;44557;51.862;19.378;2023-04-25T03:06:39;5.10;;;3.40;;
58784;SDS011;44557;51.862;19.378;2023-04-25T03:08:41;4.50;;;3.20;;
58784;SDS011;44557;51.862;19.378;2023-04-25T03:10:43;6.00;;;3.60;;
58784;SDS011;44557;51.862;19.378;2023-04-25T03:12:46;5.50;;;3.20;;
58784;SDS011;44557;51.862;19.378;2023-04-25T03:14:47;4.70;;;3.30;;
58784;SDS011;44557;51.862;19.378;2023-04-25T03:16:49;8.30;;;3.40;;
58784;SDS011;44557;51.862;19.378;2023-04-25T03:18:50;6.70;;;3.70;;
58784;SDS011;44557;51.862;19.378;2023-04-25T03:20:52;5.80;;;3.20;;
58784;SDS011;44557;51.862;19.378;2023-04-25T03:22:53;5.30;;;3.20;;
58784;SDS011;44557;51.862;19.378;2023-04-25T03:24:55;4.10;;;3.00;;
58784;SDS011;44557;51.862;19.378;2023-04-25T03:26:57;7.10;;;3.50;;
58784;SDS011;44557;51.862;19.378;2023-04-25T03:28:58;6.30;;;3.20;;
58784;SDS011;44557;51.862;19.378;2023-04-25T03:31:00;5.60;;;3.30;;
58784;SDS011;44557;51.862;19.378;2023-04-25T03:33:01;4.80;;;3.20;;
58784;SDS011;44557;51.862;19.378;2023-04-25T03:35:03;6.50;;;3.40;;
58784;SDS011;44557;51.862;19.378;2023-04-25T03:37:06;5.80;;;3.60;;
58784;SDS011;44557;51.862;19.378;2023-04-25T03:39:08;4.80;;;3.10;;
58784;SDS011;44557;51.862;19.378;2023-04-25T03:41:10;4.30;;;3.20;;
58784;SDS011;44557;51.862;19.378;2023-04-25T03:43:12;5.20;;;3.40;;
58784;SDS011;44557;51.862;19.378;2023-04-25T03:45:14;8.10;;;3.30;;
58784;SDS011;44557;51.862;19.378;2023-04-25T03:47:15;5.10;;;3.00;;
58784;SDS011;44557;51.862;19.378;2023-04-25T03:49:17;4.70;;;3.10;;
58784;SDS011;44557;51.862;19.378;2023-04-25T03:51:19;6.10;;;3.00;;
58784;SDS011;44557;51.862;19.378;2023-04-25T03:53:20;4.70;;;3.10;;
58784;SDS011;44557;51.862;19.378;2023-04-25T03:55:22;4.20;;;3.10;;
58784;SDS011;44557;51.862;19.378;2023-04-25T03:57:23;5.60;;;3.20;;
58784;SDS011;44557;51.862;19.378;2023-04-25T03:59:25;5.10;;;3.10;;
58784;SDS011;44557;51.862;19.378;2023-04-25T04:01:27;4.60;;;3.10;;
58784;SDS011;44557;51.862;19.378;2023-04-25T04:03:29;4.80;;;3.00;;
58784;SDS011;44557;51.862;19.378;2023-04-25T04:05:30;4.20;;;2.70;;
58784;SDS011;44557;51.862;19.378;2023-04-25T04:07:32;5.50;;;2.90;;
58784;SDS011;44557;51.862;19.378;2023-04-25T04:09:34;3.40;;;2.60;;
58784;SDS011;44557;51.862;19.378;2023-04-25T04:11:36;5.50;;;2.90;;
58784;SDS011;44557;51.862;19.378;2023-04-25T04:13:39;5.10;;;2.90;;
58784;SDS011;44557;51.862;19.378;2023-04-25T04:15:41;4.50;;;2.60;;
58784;SDS011;44557;51.862;19.378;2023-04-25T04:17:43;4.60;;;2.50;;
58784;SDS011;44557;51.862;19.378;2023-04-25T04:19:45;3.30;;;2.40;;
58784;SDS011;44557;51.862;19.378;2023-04-25T04:21:48;3.80;;;2.50;;
58784;SDS011;44557;51.862;19.378;2023-04-25T04:23:50;3.70;;;2.50;;
58784;SDS011;44557;51.862;19.378;2023-04-25T04:25:52;3.70;;;2.20;;
58784;SDS011;44557;51.862;19.378;2023-04-25T04:27:55;4.90;;;2.30;;
58784;SDS011;44557;51.862;19.378;2023-04-25T04:29:57;4.10;;;2.50;;
58784;SDS011;44557;51.862;19.378;2023-04-25T04:31:59;3.40;;;2.30;;
58784;SDS011;44557;51.862;19.378;2023-04-25T04:34:02;4.10;;;2.30;;
58784;SDS011;44557;51.862;19.378;2023-04-25T04:36:07;3.20;;;2.20;;
58784;SDS011;44557;51.862;19.378;2023-04-25T04:38:09;4.20;;;2.30;;
58784;SDS011;44557;51.862;19.378;2023-04-25T04:40:15;3.30;;;2.10;;
58784;SDS011;44557;51.862;19.378;2023-04-25T04:42:18;3.40;;;2.20;;
58784;SDS011;44557;51.862;19.378;2023-04-25T04:44:21;2.80;;;2.10;;
58784;SDS011;44557;51.862;19.378;2023-04-25T04:46:23;3.30;;;2.10;;
58784;SDS011;44557;51.862;19.378;2023-04-25T04:48:25;4.30;;;2.10;;
58784;SDS011;44557;51.862;19.378;2023-04-25T04:50:29;3.00;;;2.00;;
58784;SDS011;44557;51.862;19.378;2023-04-25T04:52:35;4.30;;;1.90;;
58784;SDS011;44557;51.862;19.378;2023-04-25T04:54:38;2.80;;;1.80;;
58784;SDS011;44557;51.862;19.378;2023-04-25T04:56:41;2.50;;;2.00;;
58784;SDS011;44557;51.862;19.378;2023-04-25T04:58:44;2.80;;;2.00;;
58784;SDS011;44557;51.862;19.378;2023-04-25T05:00:56;4.30;;;2.40;;
58784;SDS011;44557;51.862;19.378;2023-04-25T05:02:58;2.70;;;2.00;;
58784;SDS011;44557;51.862;19.378;2023-04-25T05:05:05;4.00;;;1.70;;
58784;SDS011;44557;51.862;19.378;2023-04-25T05:07:07;2.90;;;2.00;;
58784;SDS011;44557;51.862;19.378;2023-04-25T05:09:11;3.60;;;2.00;;
58784;SDS011;44557;51.862;19.378;2023-04-25T05:11:13;4.50;;;2.40;;
58784;SDS011;44557;51.862;19.378;2023-04-25T05:13:17;5.10;;;2.30;;
58784;SDS011;44557;51.862;19.378;2023-04-25T05:15:20;3.40;;;2.10;;
58784;SDS011;44557;51.862;19.378;2023-04-25T05:17:26;3.50;;;2.10;;
58784;SDS011;44557;51.862;19.378;2023-04-25T05:29:08;3.90;;;2.50;;
58784;SDS011;44557;51.862;19.378;2023-04-25T05:31:32;3.50;;;2.40;;
58784;SDS011;44557;51.862;19.378;2023-04-25T05:36:15;4.30;;;2.60;;
58784;SDS011;44557;51.862;19.378;2023-04-25T05:43:16;4.00;;;2.50;;
58784;SDS011;44557;51.862;19.378;2023-04-25T05:45:19;3.40;;;2.60;;
58784;SDS011;44557;51.862;19.378;2023-04-25T05:47:24;3.10;;;2.20;;
58784;SDS011;44557;51.862;19.378;2023-04-25T05:49:31;3.10;;;2.20;;
58784;SDS011;44557;51.862;19.378;2023-04-25T05:53:48;3.30;;;2.40;;
58784;SDS011;44557;51.862;19.378;2023-04-25T05:56:10;2.90;;;2.20;;
58784;SDS011;44557;51.862;19.378;2023-04-25T05:58:14;5.30;;;2.40;;
58784;SDS011;44557;51.862;19.378;2023-04-25T06:15:05;4.40;;;2.30;;
58784;SDS011;44557;51.862;19.378;2023-04-25T06:17:25;3.80;;;2.20;;
58784;SDS011;44557;51.862;19.378;2023-04-25T06:19:40;6.20;;;2.60;;
58784;SDS011;44557;51.862;19.378;2023-04-25T06:24:15;3.60;;;2.00;;
58784;SDS011;44557;51.862;19.378;2023-04-25T06:28:50;4.70;;;2.50;;
58784;SDS011;44557;51.862;19.378;2023-04-25T06:31:00;3.50;;;2.20;;
58784;SDS011;44557;51.862;19.378;2023-04-25T06:33:10;4.20;;;2.30;;
58784;SDS011;44557;51.862;19.378;2023-04-25T06:35:23;4.10;;;2.20;;
58784;SDS011;44557;51.862;19.378;2023-04-25T06:37:32;6.70;;;2.20;;
58784;SDS011;44557;51.862;19.378;2023-04-25T06:39:35;4.10;;;2.40;;
58784;SDS011;44557;51.862;19.378;2023-04-25T06:41:44;4.30;;;2.50;;
58784;SDS011;44557;51.862;19.378;2023-04-25T06:44:12;3.60;;;2.30;;
58784;SDS011;44557;51.862;19.378;2023-04-25T06:46:19;3.30;;;2.20;;
58784;SDS011;44557;51.862;19.378;2023-04-25T06:48:26;4.60;;;2.50;;
58784;SDS011;44557;51.862;19.378;2023-04-25T06:50:36;3.90;;;2.20;;
58784;SDS011;44557;51.862;19.378;2023-04-25T06:52:48;4.20;;;2.50;;
58784;SDS011;44557;51.862;19.378;2023-04-25T06:54:54;5.80;;;2.70;;
58784;SDS011;44557;51.862;19.378;2023-04-25T06:57:05;6.40;;;3.00;;
58784;SDS011;44557;51.862;19.378;2023-04-25T06:59:17;6.70;;;3.10;;
58784;SDS011;44557;51.862;19.378;2023-04-25T07:01:42;5.50;;;3.20;;
58784;SDS011;44557;51.862;19.378;2023-04-25T07:04:09;4.70;;;3.30;;
58784;SDS011;44557;51.862;19.378;2023-04-25T07:08:48;6.70;;;3.00;;
58784;SDS011;44557;51.862;19.378;2023-04-25T07:13:25;5.70;;;3.30;;
58784;SDS011;44557;51.862;19.378;2023-04-25T07:17:56;7.30;;;3.10;;
58784;SDS011;44557;51.862;19.378;2023-04-25T07:23:26;5.30;;;3.10;;
58784;SDS011;44557;51.862;19.378;2023-04-25T07:25:31;5.90;;;3.30;;
58784;SDS011;44557;51.862;19.378;2023-04-25T07:30:04;4.80;;;3.10;;
58784;SDS011;44557;51.862;19.378;2023-04-25T07:32:09;6.10;;;3.30;;
58784;SDS011;44557;51.862;19.378;2023-04-25T07:36:43;5.80;;;3.50;;
58784;SDS011;44557;51.862;19.378;2023-04-25T07:39:02;4.90;;;2.80;;
58784;SDS011;44557;51.862;19.378;2023-04-25T07:41:30;5.70;;;3.80;;
58784;SDS011;44557;51.862;19.378;2023-04-25T07:44:32;7.00;;;3.40;;
58784;SDS011;44557;51.862;19.378;2023-04-25T07:46:45;5.10;;;3.20;;
58784;SDS011;44557;51.862;19.378;2023-04-25T07:48:51;5.70;;;3.40;;
58784;SDS011;44557;51.862;19.378;2023-04-25T07:50:58;4.80;;;2.70;;
58784;SDS011;44557;51.862;19.378;2023-04-25T07:53:12;6.80;;;3.10;;
58784;SDS011;44557;51.862;19.378;2023-04-25T08:10:10;4.50;;;3.10;;
58784;SDS011;44557;51.862;19.378;2023-04-25T08:14:51;5.70;;;3.40;;
58784;SDS011;44557;51.862;19.378;2023-04-25T08:19:31;4.70;;;2.90;;
58784;SDS011;44557;51.862;19.378;2023-04-25T08:43:35;5.30;;;2.40;;
58784;SDS011;44557;51.862;19.378;2023-04-25T08:45:49;4.40;;;2.50;;
58784;SDS011;44557;51.862;19.378;2023-04-25T08:48:07;3.60;;;2.10;;
58784;SDS011;44557;51.862;19.378;2023-04-25T08:50:17;3.10;;;2.10;;
58784;SDS011;44557;51.862;19.378;2023-04-25T08:52:30;4.70;;;2.40;;
58784;SDS011;44557;51.862;19.378;2023-04-25T08:54:37;3.80;;;2.30;;
58784;SDS011;44557;51.862;19.378;2023-04-25T08:56:45;5.40;;;2.70;;
58784;SDS011;44557;51.862;19.378;2023-04-25T08:58:52;4.10;;;2.60;;
58784;SDS011;44557;51.862;19.378;2023-04-25T09:00:55;3.30;;;2.00;;
58784;SDS011;44557;51.862;19.378;2023-04-25T09:03:08;3.30;;;2.20;;
58784;SDS011;44557;51.862;19.378;2023-04-25T09:05:16;4.20;;;2.30;;
58784;SDS011;44557;51.862;19.378;2023-04-25T09:09:31;5.20;;;2.80;;
58784;SDS011;44557;51.862;19.378;2023-04-25T09:11:33;3.90;;;2.60;;
58784;SDS011;44557;51.862;19.378;2023-04-25T09:13:36;3.90;;;2.60;;
58784;SDS011;44557;51.862;19.378;2023-04-25T09:15:50;6.60;;;3.80;;
58784;SDS011;44557;51.862;19.378;2023-04-25T09:17:56;5.90;;;3.10;;
58784;SDS011;44557;51.862;19.378;2023-04-25T09:20:18;6.10;;;3.10;;
58784;SDS011;44557;51.862;19.378;2023-04-25T09:22:20;6.70;;;3.50;;
58784;SDS011;44557;51.862;19.378;2023-04-25T09:24:33;5.40;;;3.20;;
58784;SDS011;44557;51.862;19.378;2023-04-25T09:26:39;5.30;;;3.50;;
58784;SDS011;44557;51.862;19.378;2023-04-25T09:28:40;5.50;;;3.60;;
58784;SDS011;44557;51.862;19.378;2023-04-25T09:30:41;6.40;;;4.30;;
58784;SDS011;44557;51.862;19.378;2023-04-25T09:32:43;9.90;;;5.00;;
58784;SDS011;44557;51.862;19.378;2023-04-25T09:34:48;8.50;;;5.20;;
58784;SDS011;44557;51.862;19.378;2023-04-25T09:36:53;6.30;;;3.60;;
58784;SDS011;44557;51.862;19.378;2023-04-25T09:38:55;6.30;;;3.70;;
58784;SDS011;44557;51.862;19.378;2023-04-25T09:40:56;5.70;;;3.50;;
58784;SDS011;44557;51.862;19.378;2023-04-25T09:42:57;8.20;;;4.10;;
58784;SDS011;44557;51.862;19.378;2023-04-25T09:45:00;6.10;;;4.10;;
58784;SDS011;44557;51.862;19.378;2023-04-25T09:47:04;6.50;;;3.40;;
58784;SDS011;44557;51.862;19.378;2023-04-25T09:49:11;5.00;;;3.40;;
58784;SDS011;44557;51.862;19.378;2023-04-25T09:51:15;5.00;;;3.30;;
58784;SDS011;44557;51.862;19.378;2023-04-25T09:53:16;5.60;;;3.50;;
58784;SDS011;44557;51.862;19.378;2023-04-25T09:55:17;4.30;;;3.00;;
58784;SDS011;44557;51.862;19.378;2023-04-25T09:57:19;5.70;;;2.90;;
58784;SDS011;44557;51.862;19.378;2023-04-25T09:59:22;4.70;;;3.20;;
58784;SDS011;44557;51.862;19.378;2023-04-25T10:01:23;3.90;;;3.00;;
58784;SDS011;44557;51.862;19.378;2023-04-25T10:03:26;5.70;;;3.70;;
58784;SDS011;44557;51.862;19.378;2023-04-25T10:05:30;6.00;;;3.20;;
58784;SDS011;44557;51.862;19.378;2023-04-25T10:07:33;6.50;;;3.80;;
58784;SDS011;44557;51.862;19.378;2023-04-25T10:09:39;5.50;;;3.70;;
58784;SDS011;44557;51.862;19.378;2023-04-25T10:11:40;4.40;;;3.30;;
58784;SDS011;44557;51.862;19.378;2023-04-25T10:13:41;5.90;;;2.90;;
58784;SDS011;44557;51.862;19.378;2023-04-25T10:15:42;5.00;;;3.30;;
58784;SDS011;44557;51.862;19.378;2023-04-25T10:17:43;4.80;;;3.00;;
58784;SDS011;44557;51.862;19.378;2023-04-25T10:19:46;4.00;;;2.90;;
58784;SDS011;44557;51.862;19.378;2023-04-25T10:21:57;6.70;;;3.70;;
58784;SDS011;44557;51.862;19.378;2023-04-25T10:24:09;6.10;;;3.20;;
58784;SDS011;44557;51.862;19.378;2023-04-25T10:26:10;5.50;;;3.50;;
58784;SDS011;44557;51.862;19.378;2023-04-25T10:28:13;4.60;;;3.20;;
58784;SDS011;44557;51.862;19.378;2023-04-25T10:30:14;5.10;;;3.30;;
58784;SDS011;44557;51.862;19.378;2023-04-25T10:32:15;6.60;;;3.80;;
58784;SDS011;44557;51.862;19.378;2023-04-25T10:34:17;6.80;;;3.30;;
58784;SDS011;44557;51.862;19.378;2023-04-25T10:36:18;8.30;;;3.40;;
58784;SDS011;44557;51.862;19.378;2023-04-25T10:38:24;5.60;;;3.10;;
58784;SDS011;44557;51.862;19.378;2023-04-25T10:40:26;5.70;;;3.50;;
58784;SDS011;44557;51.862;19.378;2023-04-25T10:42:28;4.60;;;3.20;;
58784;SDS011;44557;51.862;19.378;2023-04-25T10:44:29;5.00;;;3.80;;
58784;SDS011;44557;51.862;19.378;2023-04-25T10:46:30;5.90;;;3.30;;
58784;SDS011;44557;51.862;19.378;2023-04-25T10:48:35;6.70;;;3.70;;
58784;SDS011;44557;51.862;19.378;2023-04-25T10:50:39;5.60;;;3.40;;
58784;SDS011;44557;51.862;19.378;2023-04-25T10:55:04;5.90;;;3.40;;
58784;SDS011;44557;51.862;19.378;2023-04-25T10:57:24;5.40;;;3.50;;
58784;SDS011;44557;51.862;19.378;2023-04-25T10:59:20;5.80;;;3.70;;
58784;SDS011;44557;51.862;19.378;2023-04-25T11:01:25;7.80;;;4.10;;
58784;SDS011;44557;51.862;19.378;2023-04-25T11:03:40;7.10;;;3.80;;
58784;SDS011;44557;51.862;19.378;2023-04-25T11:05:48;6.90;;;3.70;;
58784;SDS011;44557;51.862;19.378;2023-04-25T11:10:17;7.90;;;4.30;;
58784;SDS011;44557;51.862;19.378;2023-04-25T11:12:27;5.60;;;4.20;;
58784;SDS011;44557;51.862;19.378;2023-04-25T11:14:34;5.40;;;3.80;;
58784;SDS011;44557;51.862;19.378;2023-04-25T11:16:37;7.20;;;4.10;;
58784;SDS011;44557;51.862;19.378;2023-04-25T11:18:44;8.10;;;3.90;;
58784;SDS011;44557;51.862;19.378;2023-04-25T11:21:00;4.80;;;3.50;;
58784;SDS011;44557;51.862;19.378;2023-04-25T11:23:04;5.60;;;4.00;;
58784;SDS011;44557;51.862;19.378;2023-04-25T11:27:37;7.20;;;3.70;;
58784;SDS011;44557;51.862;19.378;2023-04-25T11:29:40;5.10;;;3.70;;
58784;SDS011;44557;51.862;19.378;2023-04-25T11:31:54;6.10;;;3.80;;
58784;SDS011;44557;51.862;19.378;2023-04-25T11:34:03;6.00;;;4.00;;
58784;SDS011;44557;51.862;19.378;2023-04-25T11:36:05;5.90;;;3.90;;
58784;SDS011;44557;51.862;19.378;2023-04-25T11:38:07;6.10;;;4.10;;
58784;SDS011;44557;51.862;19.378;2023-04-25T11:40:19;5.30;;;3.90;;
58784;SDS011;44557;51.862;19.378;2023-04-25T11:42:26;6.40;;;4.10;;
58784;SDS011;44557;51.862;19.378;2023-04-25T11:45:20;7.30;;;3.80;;
58784;SDS011;44557;51.862;19.378;2023-04-25T11:47:29;7.70;;;4.30;;
58784;SDS011;44557;51.862;19.378;2023-04-25T11:55:58;6.60;;;4.10;;
58784;SDS011;44557;51.862;19.378;2023-04-25T11:58:00;5.00;;;3.70;;
58784;SDS011;44557;51.862;19.378;2023-04-25T12:00:08;6.90;;;3.90;;
58784;SDS011;44557;51.862;19.378;2023-04-25T12:02:25;6.80;;;3.60;;
58784;SDS011;44557;51.862;19.378;2023-04-25T12:05:46;5.90;;;3.60;;
58784;SDS011;44557;51.862;19.378;2023-04-25T12:07:38;5.20;;;3.30;;
58784;SDS011;44557;51.862;19.378;2023-04-25T12:10:03;6.90;;;3.70;;
58784;SDS011;44557;51.862;19.378;2023-04-25T12:12:09;5.10;;;3.40;;
58784;SDS011;44557;51.862;19.378;2023-04-25T12:14:32;6.10;;;3.70;;
58784;SDS011;44557;51.862;19.378;2023-04-25T12:18:35;6.60;;;3.40;;
58784;SDS011;44557;51.862;19.378;2023-04-25T12:20:43;6.40;;;3.50;;
58784;SDS011;44557;51.862;19.378;2023-04-25T12:22:52;4.80;;;3.40;;
58784;SDS011;44557;51.862;19.378;2023-04-25T12:25:00;4.20;;;2.80;;
58784;SDS011;44557;51.862;19.378;2023-04-25T12:27:15;5.90;;;2.80;;
58784;SDS011;44557;51.862;19.378;2023-04-25T12:29:31;6.00;;;3.20;;
58784;SDS011;44557;51.862;19.378;2023-04-25T12:31:45;6.30;;;3.10;;
58784;SDS011;44557;51.862;19.378;2023-04-25T12:34:00;6.80;;;3.40;;
58784;SDS011;44557;51.862;19.378;2023-04-25T12:36:16;5.20;;;3.10;;
58784;SDS011;44557;51.862;19.378;2023-04-25T12:38:30;5.00;;;2.70;;
58784;SDS011;44557;51.862;19.378;2023-04-25T12:40:48;5.60;;;3.50;;
58784;SDS011;44557;51.862;19.378;2023-04-25T12:43:03;5.30;;;2.90;;
58784;SDS011;44557;51.862;19.378;2023-04-25T12:45:38;4.00;;;2.90;;
58784;SDS011;44557;51.862;19.378;2023-04-25T12:47:53;7.00;;;2.90;;
58784;SDS011;44557;51.862;19.378;2023-04-25T12:50:08;4.70;;;3.00;;
58784;SDS011;44557;51.862;19.378;2023-04-25T12:52:23;4.50;;;3.10;;
58784;SDS011;44557;51.862;19.378;2023-04-25T12:54:41;6.50;;;3.50;;
58784;SDS011;44557;51.862;19.378;2023-04-25T12:56:56;6.10;;;3.30;;
58784;SDS011;44557;51.862;19.378;2023-04-25T12:59:11;5.10;;;3.00;;
58784;SDS011;44557;51.862;19.378;2023-04-25T13:01:33;6.20;;;3.20;;
58784;SDS011;44557;51.862;19.378;2023-04-25T13:03:53;5.50;;;2.90;;
58784;SDS011;44557;51.862;19.378;2023-04-25T13:06:47;5.20;;;2.70;;
58784;SDS011;44557;51.862;19.378;2023-04-25T13:09:05;5.80;;;3.10;;
58784;SDS011;44557;51.862;19.378;2023-04-25T13:11:20;6.10;;;3.30;;
58784;SDS011;44557;51.862;19.378;2023-04-25T13:13:35;5.70;;;3.00;;
58784;SDS011;44557;51.862;19.378;2023-04-25T13:15:50;6.90;;;3.00;;
58784;SDS011;44557;51.862;19.378;2023-04-25T13:18:05;5.70;;;3.40;;
58784;SDS011;44557;51.862;19.378;2023-04-25T13:20:59;4.00;;;2.80;;
58784;SDS011;44557;51.862;19.378;2023-04-25T13:23:14;6.90;;;3.20;;
58784;SDS011;44557;51.862;19.378;2023-04-25T13:25:29;4.20;;;2.70;;
58784;SDS011;44557;51.862;19.378;2023-04-25T13:27:44;6.60;;;2.90;;
58784;SDS011;44557;51.862;19.378;2023-04-25T13:29:59;5.80;;;3.00;;
58784;SDS011;44557;51.862;19.378;2023-04-25T13:32:14;6.50;;;2.70;;
58784;SDS011;44557;51.862;19.378;2023-04-25T13:34:57;4.00;;;2.30;;
58784;SDS011;44557;51.862;19.378;2023-04-25T13:37:51;5.40;;;2.70;;
58784;SDS011;44557;51.862;19.378;2023-04-25T13:40:09;4.40;;;2.50;;
58784;SDS011;44557;51.862;19.378;2023-04-25T13:42:24;6.40;;;2.70;;
58784;SDS011;44557;51.862;19.378;2023-04-25T13:44:39;5.90;;;2.40;;
58784;SDS011;44557;51.862;19.378;2023-04-25T13:46:59;5.60;;;3.00;;
58784;SDS011;44557;51.862;19.378;2023-04-25T13:49:14;5.20;;;3.10;;
58784;SDS011;44557;51.862;19.378;2023-04-25T13:51:30;4.80;;;2.70;;
58784;SDS011;44557;51.862;19.378;2023-04-25T13:53:52;4.10;;;2.50;;
58784;SDS011;44557;51.862;19.378;2023-04-25T13:56:45;3.40;;;2.30;;
58784;SDS011;44557;51.862;19.378;2023-04-25T13:58:46;5.80;;;2.70;;
58784;SDS011;44557;51.862;19.378;2023-04-25T14:00:48;6.60;;;2.70;;
58784;SDS011;44557;51.862;19.378;2023-04-25T14:02:49;6.50;;;2.80;;
58784;SDS011;44557;51.862;19.378;2023-04-25T14:04:50;4.70;;;2.70;;
58784;SDS011;44557;51.862;19.378;2023-04-25T14:09:01;6.60;;;2.70;;
58784;SDS011;44557;51.862;19.378;2023-04-25T14:11:26;7.20;;;2.90;;
58784;SDS011;44557;51.862;19.378;2023-04-25T14:13:30;4.70;;;2.80;;
58784;SDS011;44557;51.862;19.378;2023-04-25T14:16:12;4.50;;;2.60;;
58784;SDS011;44557;51.862;19.378;2023-04-25T14:18:33;4.40;;;2.80;;
58784;SDS011;44557;51.862;19.378;2023-04-25T14:20:53;7.80;;;3.00;;
58784;SDS011;44557;51.862;19.378;2023-04-25T14:23:22;5.00;;;2.60;;
58784;SDS011;44557;51.862;19.378;2023-04-25T14:25:40;5.70;;;2.70;;
58784;SDS011;44557;51.862;19.378;2023-04-25T14:27:48;4.60;;;2.60;;
58784;SDS011;44557;51.862;19.378;2023-04-25T14:29:56;4.90;;;2.80;;
58784;SDS011;44557;51.862;19.378;2023-04-25T14:32:05;5.10;;;3.00;;